Terminal Aerodrome Forecast
Issued by NWS

Home | Current Version | Previous Version | Text Only | Print | Product List | Glossary On
Versions: 1 2 3 4 5 6 7 8 9 10 11 12 13 14
326
FTUS41 KILN 070524
TAFLUK
TAF
KLUK 070524Z 0706/0806 00000KT P6SM FEW250
     FM071500 22010KT P6SM SCT150
     FM072300 22005KT P6SM BKN050 OVC120
     FM080300 20004KT P6SM VCSH SCT025 OVC035=

USA.gov is the U.S. government's official web portal to all federal, state and local government web resources and services.